Time;durP1;ratioP1;P1;durP2;ratioP2;P2;SDS_P1;SDS_P2;PMS_P1;PMS_P2;Temp;Humidity;BMP_temperature;BMP_pressure;BME280_temperature;BME280_humidity;BME280_pressure;Samples;Min_cycle;Max_cycle;Signal;HPM_P1;HPM_P2
2023/08/09 00:02:20;;;;;;;5.03;1.90;;;13.70;99.90;;;;;;5036486;28;20029;-81
2023/08/09 00:04:45;;;;;;;3.97;1.80;;;13.70;99.90;;;;;;5036633;28;20064;-81
2023/08/09 00:07:11;;;;;;;4.18;2.10;;;13.70;99.90;;;;;;5035836;28;20033;-81
2023/08/09 00:09:36;;;;;;;4.57;2.00;;;13.70;99.90;;;;;;5036647;28;20026;-81
2023/08/09 00:12:03;;;;;;;3.10;1.92;;;13.70;99.90;;;;;;5035837;28;20029;-81
2023/08/09 00:14:28;;;;;;;3.35;1.90;;;13.70;99.90;;;;;;5036508;28;20040;-81
2023/08/09 00:16:54;;;;;;;2.20;1.70;;;13.70;99.90;;;;;;5036199;28;20026;-80
2023/08/09 00:19:20;;;;;;;4.95;2.05;;;13.70;99.90;;;;;;5036334;28;20088;-81
2023/08/09 00:21:46;;;;;;;4.50;2.10;;;13.70;99.90;;;;;;5036501;28;20044;-80
2023/08/09 00:24:12;;;;;;;2.63;1.90;;;13.70;99.90;;;;;;5036579;28;20480;-81
2023/08/09 00:26:37;;;;;;;2.63;1.83;;;13.70;99.90;;;;;;5034700;28;20029;-81
2023/08/09 00:29:03;;;;;;;4.65;2.08;;;13.70;99.90;;;;;;5039053;28;20056;-80
2023/08/09 00:31:29;;;;;;;4.68;2.17;;;13.70;99.90;;;;;;5040252;28;20048;-81
2023/08/09 00:33:54;;;;;;;5.38;1.70;;;13.70;99.90;;;;;;5040630;28;20036;-81
2023/08/09 00:36:20;;;;;;;2.63;1.85;;;13.70;99.90;;;;;;5037483;28;21010;-81
2023/08/09 00:38:46;;;;;;;3.58;1.85;;;13.70;99.90;;;;;;5039210;28;20025;-81
2023/08/09 00:41:12;;;;;;;4.00;1.90;;;13.70;99.90;;;;;;5039178;28;20036;-81
2023/08/09 00:43:37;;;;;;;2.80;1.92;;;13.70;99.90;;;;;;5039459;28;20028;-80
2023/08/09 00:46:03;;;;;;;3.63;1.80;;;13.80;99.90;;;;;;5039366;28;20028;-81
2023/08/09 00:48:29;;;;;;;3.92;1.90;;;13.70;99.90;;;;;;5038460;28;20037;-81
2023/08/09 00:50:55;;;;;;;4.72;2.33;;;13.80;99.90;;;;;;5038831;28;20038;-81
2023/08/09 00:53:21;;;;;;;3.72;1.67;;;13.80;99.90;;;;;;5039607;28;21328;-81
2023/08/09 00:55:47;;;;;;;4.47;2.00;;;13.80;99.90;;;;;;5039382;28;20055;-81
2023/08/09 00:58:12;;;;;;;3.05;1.70;;;13.80;99.90;;;;;;5039674;28;20536;-80
2023/08/09 01:00:38;;;;;;;3.17;1.80;;;13.80;99.90;;;;;;5039737;28;20112;-81
2023/08/09 01:03:04;;;;;;;3.67;2.20;;;13.80;99.90;;;;;;5039573;28;20018;-81
2023/08/09 01:05:37;;;;;;;3.35;1.83;;;13.80;99.90;;;;;;5040134;28;20030;-81
2023/08/09 01:08:27;;;;;;;5.38;1.75;;;13.90;99.90;;;;;;5038593;28;20024;-81
2023/08/09 01:11:11;;;;;;;2.83;1.80;;;13.90;99.90;;;;;;5038727;28;20187;-81
2023/08/09 01:13:39;;;;;;;4.65;1.88;;;13.80;99.90;;;;;;5038014;28;20102;-82
2023/08/09 01:16:07;;;;;;;2.80;1.80;;;13.80;99.90;;;;;;5037915;28;20032;-81
2023/08/09 01:18:34;;;;;;;2.65;1.60;;;13.90;99.90;;;;;;5037692;28;20026;-80
2023/08/09 01:21:01;;;;;;;4.65;1.65;;;13.90;99.90;;;;;;5037289;28;20044;-81
2023/08/09 01:23:53;;;;;;;4.85;1.70;;;13.90;99.90;;;;;;5038415;28;20041;-81
2023/08/09 01:26:18;;;;;;;5.50;1.63;;;13.90;99.90;;;;;;5037132;28;20034;-81
2023/08/09 01:28:44;;;;;;;4.03;1.90;;;13.90;99.90;;;;;;5039590;28;20033;-81
2023/08/09 01:31:10;;;;;;;2.85;1.65;;;14.00;99.90;;;;;;5039485;28;20404;-81
2023/08/09 01:33:36;;;;;;;2.28;1.60;;;14.00;99.90;;;;;;5037631;28;20025;-81
2023/08/09 01:36:08;;;;;;;4.75;1.52;;;14.00;99.90;;;;;;5039075;28;20033;-81
2023/08/09 01:38:40;;;;;;;3.80;1.70;;;14.00;99.90;;;;;;5037896;28;20048;-80
2023/08/09 01:41:07;;;;;;;2.22;1.50;;;14.00;99.90;;;;;;5036036;28;20044;-81
2023/08/09 01:43:33;;;;;;;3.47;1.80;;;14.00;99.90;;;;;;5035358;28;20029;-81
2023/08/09 01:46:00;;;;;;;2.78;1.90;;;14.00;99.90;;;;;;5034237;28;20103;-81
2023/08/09 01:48:26;;;;;;;2.90;1.80;;;14.10;99.90;;;;;;5033054;28;20021;-81
2023/08/09 01:50:51;;;;;;;2.80;1.67;;;14.00;99.90;;;;;;5037103;28;20438;-80
2023/08/09 01:53:17;;;;;;;4.13;1.88;;;14.10;99.90;;;;;;5039193;28;20025;-81
2023/08/09 01:55:43;;;;;;;2.67;1.83;;;14.00;99.90;;;;;;5039120;28;20021;-80
2023/08/09 01:58:09;;;;;;;5.30;1.73;;;14.00;99.90;;;;;;5038162;28;20025;-81
2023/08/09 02:00:34;;;;;;;4.85;1.85;;;14.00;99.90;;;;;;5038486;28;20025;-81
2023/08/09 02:03:00;;;;;;;3.38;1.77;;;14.00;99.90;;;;;;5038253;28;20059;-81
2023/08/09 02:05:26;;;;;;;5.80;1.77;;;14.00;99.90;;;;;;5039438;28;20043;-81
2023/08/09 02:07:51;;;;;;;3.72;1.75;;;14.00;99.90;;;;;;5037873;28;20516;-81
2023/08/09 02:10:17;;;;;;;3.20;1.80;;;14.00;99.90;;;;;;5039048;28;20053;-81
2023/08/09 02:12:50;;;;;;;3.78;1.98;;;14.00;99.90;;;;;;5038678;28;20033;-81
2023/08/09 02:15:16;;;;;;;3.05;1.73;;;14.00;99.90;;;;;;5039450;28;20075;-81
2023/08/09 02:17:43;;;;;;;3.72;1.92;;;14.00;99.90;;;;;;5037782;28;20049;-81
2023/08/09 02:20:10;;;;;;;3.60;1.75;;;14.00;99.90;;;;;;5035466;28;20033;-81
2023/08/09 02:22:37;;;;;;;4.38;2.00;;;14.00;99.90;;;;;;5037060;28;20032;-81
2023/08/09 02:25:03;;;;;;;2.88;1.80;;;14.00;99.90;;;;;;5038251;28;20029;-80
2023/08/09 02:27:29;;;;;;;3.03;1.88;;;14.00;99.90;;;;;;5036676;28;20650;-81
2023/08/09 02:29:55;;;;;;;5.22;1.50;;;14.00;99.90;;;;;;5038486;28;20036;-80
2023/08/09 02:32:21;;;;;;;8.05;3.15;;;14.00;99.90;;;;;;5038391;28;20037;-81
2023/08/09 02:34:46;;;;;;;3.95;2.00;;;14.10;99.90;;;;;;5037917;28;20029;-81
2023/08/09 02:37:12;;;;;;;7.88;2.30;;;14.10;99.90;;;;;;5037096;28;20294;-80
2023/08/09 02:39:37;;;;;;;4.20;1.70;;;14.10;99.90;;;;;;5038836;28;21571;-81
2023/08/09 02:42:03;;;;;;;6.10;1.80;;;14.10;99.90;;;;;;5038799;28;20055;-81
2023/08/09 02:44:29;;;;;;;3.75;1.70;;;14.10;99.90;;;;;;5039025;28;20075;-81
2023/08/09 02:46:55;;;;;;;4.90;1.98;;;14.10;99.90;;;;;;5037994;28;20033;-81
2023/08/09 02:49:20;;;;;;;3.40;1.67;;;14.10;99.90;;;;;;5037521;28;20029;-81
2023/08/09 02:51:46;;;;;;;2.58;1.60;;;14.10;99.90;;;;;;5037802;28;20029;-81
2023/08/09 02:54:11;;;;;;;5.40;2.13;;;14.10;99.90;;;;;;5037927;28;20083;-81
2023/08/09 02:56:37;;;;;;;4.55;2.00;;;14.10;99.90;;;;;;5037709;28;20025;-81
2023/08/09 02:59:03;;;;;;;4.57;1.90;;;14.10;99.90;;;;;;5037688;28;20052;-81
2023/08/09 03:01:29;;;;;;;4.10;2.20;;;14.10;99.90;;;;;;5037903;28;20043;-81
2023/08/09 03:03:55;;;;;;;3.88;1.60;;;14.10;99.90;;;;;;5038245;28;20018;-81
2023/08/09 03:06:22;;;;;;;4.75;1.90;;;14.10;99.90;;;;;;5037396;28;20021;-81
2023/08/09 03:08:51;;;;;;;2.42;1.67;;;14.10;99.90;;;;;;5038420;28;20028;-81
2023/08/09 03:11:22;;;;;;;2.63;1.70;;;14.10;99.90;;;;;;5037416;28;20075;-81
2023/08/09 03:13:48;;;;;;;4.22;1.70;;;14.10;99.90;;;;;;5037494;28;20028;-81
2023/08/09 03:16:14;;;;;;;3.22;2.15;;;14.10;99.90;;;;;;5037527;28;20121;-81
2023/08/09 03:18:40;;;;;;;4.07;1.70;;;14.10;99.90;;;;;;5036909;28;20506;-81
2023/08/09 03:21:07;;;;;;;4.45;2.20;;;14.10;99.90;;;;;;5037394;28;20025;-81
2023/08/09 03:23:33;;;;;;;2.45;1.50;;;14.10;99.90;;;;;;5037596;28;20025;-81
2023/08/09 03:25:58;;;;;;;2.88;1.80;;;14.00;99.90;;;;;;5037275;28;20036;-81
2023/08/09 03:28:24;;;;;;;7.03;2.00;;;14.10;99.90;;;;;;5037258;28;20063;-80
2023/08/09 03:30:50;;;;;;;3.75;1.73;;;14.00;99.90;;;;;;5037997;28;20030;-81
2023/08/09 03:33:16;;;;;;;5.57;1.65;;;14.00;99.90;;;;;;5038892;28;20029;-81
2023/08/09 03:35:42;;;;;;;3.22;1.90;;;14.00;99.90;;;;;;5038562;28;20661;-81
2023/08/09 03:38:07;;;;;;;3.65;1.83;;;14.00;99.90;;;;;;5037705;28;20083;-80
2023/08/09 03:40:33;;;;;;;4.43;2.20;;;14.00;99.90;;;;;;5037950;28;20543;-81
2023/08/09 03:42:58;;;;;;;4.78;2.40;;;14.00;99.90;;;;;;5035771;28;20029;-82
2023/08/09 03:45:24;;;;;;;5.30;1.90;;;14.10;99.90;;;;;;5034776;28;20079;-81
2023/08/09 03:47:49;;;;;;;3.90;1.95;;;14.10;99.90;;;;;;5034287;28;20034;-81
2023/08/09 03:50:15;;;;;;;4.53;2.22;;;14.10;99.90;;;;;;5035234;28;20180;-81
2023/08/09 03:52:41;;;;;;;3.45;2.40;;;14.10;99.90;;;;;;5036444;28;20029;-81
2023/08/09 03:55:06;;;;;;;7.70;2.55;;;14.00;99.90;;;;;;5037341;28;20025;-81
2023/08/09 03:57:32;;;;;;;4.55;2.40;;;14.00;99.90;;;;;;5034517;28;20045;-81
2023/08/09 03:59:58;;;;;;;3.63;2.70;;;14.00;99.90;;;;;;5035716;28;20058;-81
2023/08/09 04:02:24;;;;;;;4.47;2.40;;;14.00;99.90;;;;;;5038306;28;20059;-81
2023/08/09 04:04:49;;;;;;;4.97;1.90;;;14.00;99.90;;;;;;5040538;28;20036;-81
2023/08/09 04:07:15;;;;;;;5.80;2.13;;;14.10;99.90;;;;;;5039760;28;21456;-81
2023/08/09 04:09:40;;;;;;;3.55;1.92;;;14.00;99.90;;;;;;5040700;28;20029;-80
2023/08/09 04:12:06;;;;;;;6.68;2.15;;;14.00;99.90;;;;;;5040948;28;20100;-81
2023/08/09 04:14:33;;;;;;;2.83;1.70;;;14.00;99.90;;;;;;5040410;28;20017;-81
2023/08/09 04:16:58;;;;;;;2.83;1.80;;;13.90;99.90;;;;;;5039924;28;21030;-81
2023/08/09 04:19:26;;;;;;;5.93;2.00;;;13.90;99.90;;;;;;5040881;28;20028;-81
2023/08/09 04:21:52;;;;;;;4.28;2.20;;;13.90;99.90;;;;;;5040898;28;20104;-81
2023/08/09 04:24:18;;;;;;;5.07;2.20;;;13.90;99.90;;;;;;5040787;28;20152;-81
2023/08/09 04:26:43;;;;;;;4.75;2.08;;;13.90;99.90;;;;;;5040614;28;20031;-81
2023/08/09 04:29:09;;;;;;;4.63;2.05;;;13.90;99.90;;;;;;5040363;28;20037;-82
2023/08/09 04:31:35;;;;;;;3.63;2.05;;;13.90;99.90;;;;;;5039789;28;20044;-81
2023/08/09 04:34:00;;;;;;;5.03;2.28;;;13.90;99.90;;;;;;5039839;28;20049;-81
2023/08/09 04:36:26;;;;;;;4.60;2.05;;;13.90;99.90;;;;;;5038424;28;20025;-82
2023/08/09 04:38:52;;;;;;;4.20;2.28;;;13.90;99.90;;;;;;5039826;28;20116;-81
2023/08/09 04:41:18;;;;;;;4.22;2.20;;;13.90;99.90;;;;;;5040468;28;20033;-82
2023/08/09 04:43:44;;;;;;;2.78;2.00;;;13.90;99.90;;;;;;5038877;28;20403;-81
2023/08/09 04:46:10;;;;;;;4.38;2.22;;;13.90;99.90;;;;;;5037842;28;20553;-81
2023/08/09 04:48:38;;;;;;;4.80;2.35;;;13.90;99.90;;;;;;5036718;28;20120;-81
2023/08/09 04:51:05;;;;;;;2.70;2.03;;;13.90;99.90;;;;;;5036844;28;20029;-81
2023/08/09 04:53:30;;;;;;;3.20;2.10;;;13.90;99.90;;;;;;5037756;28;20125;-81
2023/08/09 04:55:56;;;;;;;4.10;2.38;;;13.90;99.90;;;;;;5038490;28;20112;-81
2023/08/09 04:58:21;;;;;;;5.05;2.10;;;13.90;99.90;;;;;;5038202;28;20033;-81
2023/08/09 05:00:47;;;;;;;4.40;2.08;;;13.90;99.90;;;;;;5037535;28;20029;-81
2023/08/09 05:03:13;;;;;;;5.45;2.33;;;13.90;99.90;;;;;;5033610;28;20028;-81
2023/08/09 05:05:38;;;;;;;4.60;2.20;;;13.90;99.90;;;;;;5035551;28;20029;-81
2023/08/09 05:08:04;;;;;;;4.15;1.90;;;14.00;99.90;;;;;;5036052;28;20096;-81
2023/08/09 05:10:30;;;;;;;5.05;2.28;;;14.00;99.90;;;;;;5034926;28;20049;-81
2023/08/09 05:12:55;;;;;;;2.60;1.73;;;14.00;99.90;;;;;;5030919;28;20095;-82
2023/08/09 05:15:21;;;;;;;4.38;1.60;;;14.00;99.90;;;;;;5030738;28;20044;-81
2023/08/09 05:17:47;;;;;;;3.63;1.98;;;14.10;99.90;;;;;;5033659;28;20136;-82
2023/08/09 05:20:12;;;;;;;2.75;1.80;;;14.10;99.90;;;;;;5036473;28;20025;-82
2023/08/09 05:22:38;;;;;;;5.40;2.47;;;14.10;99.90;;;;;;5035596;28;20078;-82
2023/08/09 05:25:04;;;;;;;4.30;2.13;;;14.20;99.90;;;;;;5036520;28;20048;-83
2023/08/09 05:27:29;;;;;;;4.10;2.20;;;14.20;99.90;;;;;;5035515;28;20036;-82
2023/08/09 05:29:55;;;;;;;4.13;1.95;;;14.20;99.90;;;;;;5036790;28;20041;-82
2023/08/09 05:32:21;;;;;;;4.53;2.45;;;14.20;99.90;;;;;;5038020;28;20086;-82
2023/08/09 05:34:47;;;;;;;3.25;2.00;;;14.20;99.90;;;;;;5039907;28;21448;-82
2023/08/09 05:37:12;;;;;;;5.05;2.13;;;14.20;99.90;;;;;;5038957;28;20024;-82
2023/08/09 05:39:38;;;;;;;3.97;2.30;;;14.20;99.90;;;;;;5039108;28;20159;-82
2023/08/09 05:42:04;;;;;;;4.57;2.05;;;14.30;99.90;;;;;;5039448;28;20032;-82
2023/08/09 05:44:30;;;;;;;2.83;1.80;;;14.30;99.90;;;;;;5037924;28;20495;-82
2023/08/09 05:46:56;;;;;;;3.97;1.95;;;14.30;99.90;;;;;;5031233;28;20109;-81
2023/08/09 05:49:21;;;;;;;3.35;2.30;;;14.30;99.90;;;;;;5029010;28;20037;-82
2023/08/09 05:51:47;;;;;;;7.68;2.70;;;14.30;99.90;;;;;;5032726;28;20049;-82
2023/08/09 05:54:13;;;;;;;4.80;2.42;;;14.40;99.90;;;;;;5036400;28;20047;-82
2023/08/09 05:56:38;;;;;;;5.05;2.75;;;14.30;99.90;;;;;;5038454;28;20029;-82
2023/08/09 05:59:04;;;;;;;6.25;2.92;;;14.30;99.90;;;;;;5037103;28;20037;-82
2023/08/09 06:01:30;;;;;;;3.65;2.17;;;14.20;99.90;;;;;;5035786;28;20500;-82
2023/08/09 06:03:55;;;;;;;3.88;2.33;;;14.20;99.90;;;;;;5035375;28;20029;-81
2023/08/09 06:06:21;;;;;;;4.40;2.03;;;14.20;99.90;;;;;;5034774;28;20094;-81
2023/08/09 06:08:47;;;;;;;6.00;2.33;;;14.20;99.90;;;;;;5034723;28;20053;-81
2023/08/09 06:11:13;;;;;;;4.80;2.83;;;14.20;99.90;;;;;;5033287;28;20072;-81
2023/08/09 06:13:38;;;;;;;3.80;2.05;;;14.20;99.90;;;;;;5037053;28;20036;-82
2023/08/09 06:16:04;;;;;;;4.78;2.20;;;14.20;99.90;;;;;;5035173;28;20111;-82
2023/08/09 06:18:29;;;;;;;3.35;2.13;;;14.20;99.90;;;;;;5033775;28;21211;-82
2023/08/09 06:20:55;;;;;;;3.90;2.28;;;14.20;99.90;;;;;;5035145;28;20563;-82
2023/08/09 06:23:21;;;;;;;6.15;2.30;;;14.20;99.90;;;;;;5035152;28;20101;-82
2023/08/09 06:25:49;;;;;;;4.93;2.30;;;14.30;99.90;;;;;;5036461;28;20021;-82
2023/08/09 06:28:15;;;;;;;3.90;2.35;;;14.30;99.90;;;;;;5035840;28;20053;-82
2023/08/09 06:30:41;;;;;;;5.75;2.38;;;14.30;99.90;;;;;;5035784;28;20033;-82
2023/08/09 06:33:07;;;;;;;3.67;2.50;;;14.30;99.90;;;;;;5030005;28;20095;-82
2023/08/09 06:35:33;;;;;;;5.40;2.22;;;14.30;99.90;;;;;;5034355;28;20049;-81
2023/08/09 06:37:58;;;;;;;7.15;3.03;;;14.40;99.90;;;;;;5032522;28;20055;-80
2023/08/09 06:40:24;;;;;;;3.60;2.20;;;14.50;99.90;;;;;;5032966;28;20052;-82
2023/08/09 06:42:50;;;;;;;4.70;2.30;;;14.50;99.90;;;;;;5032690;28;20029;-82
2023/08/09 06:45:16;;;;;;;5.03;2.47;;;14.50;99.90;;;;;;5032999;28;20163;-82
2023/08/09 06:47:41;;;;;;;4.55;2.40;;;14.50;99.90;;;;;;5034017;28;20025;-81
2023/08/09 06:50:07;;;;;;;5.47;2.60;;;14.50;99.90;;;;;;5033485;28;20105;-82
2023/08/09 06:52:37;;;;;;;3.92;2.03;;;14.60;99.90;;;;;;5034449;28;20037;-82
2023/08/09 06:55:07;;;;;;;3.03;2.00;;;14.70;99.90;;;;;;5034535;28;20411;-82
2023/08/09 06:57:34;;;;;;;4.60;2.45;;;14.70;99.90;;;;;;5025505;28;20032;-82
2023/08/09 07:00:00;;;;;;;4.20;2.20;;;14.80;99.90;;;;;;5022103;28;20029;-81
2023/08/09 07:02:26;;;;;;;6.88;3.00;;;14.80;99.90;;;;;;5024509;28;20029;-82
2023/08/09 07:04:54;;;;;;;5.28;2.20;;;14.80;99.90;;;;;;5028289;28;20108;-82
2023/08/09 07:07:22;;;;;;;3.50;2.38;;;14.80;99.90;;;;;;5024982;28;21035;-83
2023/08/09 07:09:49;;;;;;;6.50;2.45;;;14.90;99.90;;;;;;5027248;28;20155;-82
2023/08/09 07:12:14;;;;;;;4.70;2.45;;;14.90;99.90;;;;;;5028622;28;20041;-82
2023/08/09 07:14:40;;;;;;;4.20;2.15;;;14.90;99.90;;;;;;5028067;28;20499;-82
2023/08/09 07:17:06;;;;;;;4.60;2.35;;;15.00;99.90;;;;;;5026499;28;20041;-81
2023/08/09 07:19:31;;;;;;;6.28;2.17;;;15.00;99.90;;;;;;5027390;28;20587;-82
2023/08/09 07:21:57;;;;;;;4.80;2.35;;;15.00;99.90;;;;;;5027649;28;20096;-81
2023/08/09 07:24:22;;;;;;;3.50;2.20;;;15.00;99.90;;;;;;5026047;28;20025;-82
2023/08/09 07:26:48;;;;;;;4.07;2.17;;;15.00;99.90;;;;;;5025614;28;20034;-82
2023/08/09 07:29:13;;;;;;;5.60;2.15;;;15.00;99.90;;;;;;5029518;28;20041;-82
2023/08/09 07:31:39;;;;;;;5.47;2.40;;;14.90;99.90;;;;;;5029666;28;20055;-83
2023/08/09 07:34:04;;;;;;;4.93;2.20;;;14.90;99.90;;;;;;5030589;28;20061;-82
2023/08/09 07:36:30;;;;;;;3.13;1.92;;;15.00;99.90;;;;;;5027372;28;20056;-83
2023/08/09 07:38:58;;;;;;;3.25;1.85;;;14.90;99.90;;;;;;5030274;28;20034;-82
2023/08/09 07:41:24;;;;;;;3.10;2.15;;;14.90;99.90;;;;;;5028238;28;20102;-82
2023/08/09 07:43:49;;;;;;;4.45;2.20;;;15.00;99.90;;;;;;5030864;28;20037;-81
2023/08/09 07:46:15;;;;;;;8.45;2.22;;;15.00;99.90;;;;;;5029041;28;21513;-81
2023/08/09 07:48:41;;;;;;;4.60;2.47;;;15.00;99.90;;;;;;5027224;28;20042;-81
2023/08/09 07:51:11;;;;;;;4.97;2.50;;;15.00;99.90;;;;;;5027243;28;20970;-82
2023/08/09 07:53:40;;;;;;;5.47;2.08;;;15.00;99.90;;;;;;5027230;28;20998;-81
2023/08/09 07:56:06;;;;;;;7.88;2.50;;;15.10;99.90;;;;;;5027153;28;20036;-82
2023/08/09 07:58:31;;;;;;;4.80;1.95;;;15.10;99.90;;;;;;5028679;28;20029;-81
2023/08/09 08:00:58;;;;;;;4.90;2.28;;;15.10;99.90;;;;;;5025198;28;20030;-81
2023/08/09 08:03:23;;;;;;;5.45;2.28;;;15.10;99.90;;;;;;5026511;28;20050;-82
2023/08/09 08:05:49;;;;;;;5.57;2.35;;;15.20;99.90;;;;;;5028800;28;20055;-83
2023/08/09 08:08:17;;;;;;;3.13;2.03;;;15.20;99.90;;;;;;5028156;28;20035;-81
2023/08/09 08:10:43;;;;;;;5.18;2.10;;;15.20;99.90;;;;;;5028587;28;20793;-81
2023/08/09 08:13:09;;;;;;;4.28;2.00;;;15.20;99.90;;;;;;5033888;28;20119;-82
2023/08/09 08:15:34;;;;;;;3.08;2.10;;;15.20;99.90;;;;;;5031801;28;20116;-82
2023/08/09 08:18:00;;;;;;;5.82;2.63;;;15.30;99.90;;;;;;5033053;28;20116;-82
2023/08/09 08:20:25;;;;;;;7.20;2.63;;;15.20;99.90;;;;;;5031527;28;20025;-83
2023/08/09 08:22:51;;;;;;;7.05;2.40;;;15.30;99.90;;;;;;5029703;28;20021;-83
2023/08/09 08:25:19;;;;;;;4.85;2.53;;;15.30;99.90;;;;;;5024659;28;20079;-82
2023/08/09 08:27:45;;;;;;;4.75;2.05;;;15.20;99.90;;;;;;5030362;28;20060;-81
2023/08/09 08:30:17;;;;;;;4.15;3.00;;;15.30;99.90;;;;;;5019088;28;20048;-82
2023/08/09 08:32:43;;;;;;;3.55;2.40;;;15.30;99.90;;;;;;5027139;28;20024;-82
2023/08/09 08:35:13;;;;;;;6.95;2.40;;;15.30;99.90;;;;;;5025534;28;20547;-81
2023/08/09 08:37:39;;;;;;;3.92;2.25;;;15.30;99.90;;;;;;5025018;28;20044;-81
2023/08/09 08:40:17;;;;;;;5.32;2.33;;;15.40;99.90;;;;;;5022743;28;20105;-89
2023/08/09 08:42:43;;;;;;;3.38;2.13;;;15.50;99.90;;;;;;5025894;28;20132;-81
2023/08/09 08:45:11;;;;;;;6.00;2.22;;;15.50;99.90;;;;;;5023761;28;20175;-81
2023/08/09 08:47:41;;;;;;;6.78;2.30;;;15.50;99.90;;;;;;5025896;28;20060;-81
2023/08/09 08:50:08;;;;;;;5.20;2.45;;;15.60;99.90;;;;;;5026013;28;20322;-81
2023/08/09 08:52:37;;;;;;;6.55;2.40;;;15.60;99.90;;;;;;5027625;28;20031;-81
2023/08/09 08:55:09;;;;;;;4.95;2.20;;;15.60;99.90;;;;;;5027810;28;20123;-80
2023/08/09 08:57:35;;;;;;;4.20;2.35;;;15.60;99.90;;;;;;5029897;28;20065;-81
2023/08/09 09:00:15;;;;;;;3.67;2.47;;;15.70;99.90;;;;;;5030598;28;20041;-81
2023/08/09 09:02:41;;;;;;;6.75;2.30;;;15.60;99.90;;;;;;5034305;28;20036;-82
2023/08/09 09:05:06;;;;;;;5.95;2.65;;;15.60;99.90;;;;;;5034306;28;21005;-79
2023/08/09 09:07:33;;;;;;;5.70;2.60;;;15.50;99.90;;;;;;5033962;28;20036;-79
2023/08/09 09:10:04;;;;;;;6.10;2.65;;;15.50;99.90;;;;;;5032880;28;20038;-81
2023/08/09 09:12:30;;;;;;;5.22;2.25;;;15.50;99.90;;;;;;5033819;28;20182;-81
2023/08/09 09:14:56;;;;;;;5.05;2.30;;;15.50;99.90;;;;;;5034957;28;20275;-81
2023/08/09 09:17:24;;;;;;;4.03;2.33;;;15.60;99.90;;;;;;5033602;28;20035;-81
2023/08/09 09:19:50;;;;;;;4.53;2.50;;;15.60;99.90;;;;;;5034177;28;20072;-81
2023/08/09 09:22:29;;;;;;;6.35;2.78;;;15.60;99.90;;;;;;5032869;28;20044;-80
2023/08/09 09:24:59;;;;;;;6.15;2.55;;;15.60;99.90;;;;;;5031306;28;20083;-81
2023/08/09 09:27:31;;;;;;;5.47;2.28;;;15.70;99.90;;;;;;5032394;28;20406;-80
2023/08/09 09:30:07;;;;;;;6.32;2.65;;;15.70;99.90;;;;;;5031765;28;20138;-80
2023/08/09 09:32:33;;;;;;;5.85;2.85;;;15.60;99.90;;;;;;5033711;28;21310;-80
2023/08/09 09:34:59;;;;;;;4.57;2.45;;;15.60;99.90;;;;;;5031577;28;20056;-79
2023/08/09 09:37:26;;;;;;;5.43;2.30;;;15.70;99.90;;;;;;5031198;28;20033;-79
2023/08/09 09:39:52;;;;;;;5.95;2.83;;;15.70;99.90;;;;;;5032373;28;20036;-79
2023/08/09 09:42:28;;;;;;;4.75;2.72;;;15.70;99.90;;;;;;5032586;28;20036;-79
2023/08/09 09:45:02;;;;;;;3.53;2.40;;;15.80;99.90;;;;;;5031439;28;20116;-79
2023/08/09 09:47:31;;;;;;;4.77;2.40;;;15.80;99.90;;;;;;5031189;28;20128;-79
2023/08/09 09:49:57;;;;;;;5.57;2.20;;;15.90;99.90;;;;;;5031299;28;20103;-78
2023/08/09 09:52:23;;;;;;;4.15;2.50;;;15.90;99.90;;;;;;5033313;28;20078;-78
2023/08/09 09:54:49;;;;;;;6.35;2.40;;;16.00;99.90;;;;;;5033694;28;20052;-78
2023/08/09 09:57:15;;;;;;;5.22;2.85;;;16.10;99.90;;;;;;5032066;28;21056;-78
2023/08/09 09:59:40;;;;;;;6.55;2.53;;;16.20;99.90;;;;;;5031159;28;20544;-78
2023/08/09 10:02:08;;;;;;;5.47;2.22;;;16.20;99.90;;;;;;5031927;28;20091;-78
2023/08/09 10:04:34;;;;;;;6.30;2.58;;;16.20;99.90;;;;;;5032500;28;20111;-78
2023/08/09 10:07:00;;;;;;;5.40;2.60;;;16.20;99.90;;;;;;5032287;28;20021;-79
2023/08/09 10:09:26;;;;;;;4.65;2.40;;;16.20;99.90;;;;;;5032279;28;20051;-78
2023/08/09 10:11:53;;;;;;;3.92;2.25;;;16.20;99.90;;;;;;5032367;28;20036;-78
2023/08/09 10:14:19;;;;;;;4.70;2.25;;;16.20;99.90;;;;;;5031862;28;20021;-78
2023/08/09 10:16:48;;;;;;;5.15;2.60;;;16.10;99.90;;;;;;5032167;28;20022;-79
2023/08/09 10:19:18;;;;;;;6.78;2.20;;;16.10;99.90;;;;;;5032396;28;20047;-78
2023/08/09 10:21:44;;;;;;;3.75;2.38;;;16.00;99.90;;;;;;5032265;28;20036;-78
2023/08/09 10:24:14;;;;;;;6.22;2.72;;;15.90;99.90;;;;;;5032022;28;20033;-79
2023/08/09 10:26:44;;;;;;;3.22;2.40;;;15.90;99.90;;;;;;5031812;28;20025;-78
2023/08/09 10:29:18;;;;;;;4.50;2.42;;;16.00;99.90;;;;;;5031631;28;20053;-79
2023/08/09 10:31:52;;;;;;;3.37;2.30;;;16.10;99.90;;;;;;5031176;28;20051;-79
2023/08/09 10:34:20;;;;;;;6.72;2.42;;;16.20;99.90;;;;;;5029247;28;20127;-78
2023/08/09 10:36:55;;;;;;;5.65;2.30;;;16.40;99.90;;;;;;5029216;28;20040;-78
2023/08/09 10:39:22;;;;;;;3.25;1.90;;;16.50;99.90;;;;;;5026255;28;20078;-78
2023/08/09 10:42:04;;;;;;;4.35;2.08;;;16.70;99.90;;;;;;5030494;28;20028;-79
2023/08/09 10:44:36;;;;;;;3.80;2.28;;;16.90;99.90;;;;;;5033441;28;20029;-79
2023/08/09 10:47:07;;;;;;;4.10;1.88;;;17.00;99.90;;;;;;5033222;28;20044;-80
2023/08/09 10:49:54;;;;;;;3.15;2.10;;;17.10;99.90;;;;;;5032572;28;20101;-80
2023/08/09 10:52:33;;;;;;;4.47;2.05;;;17.30;99.90;;;;;;5027571;28;20127;-81
2023/08/09 10:55:19;;;;;;;6.18;1.90;;;17.50;99.90;;;;;;5034137;28;20029;-81
2023/08/09 10:57:47;;;;;;;3.58;2.10;;;17.70;99.90;;;;;;5029808;28;20043;-80
2023/08/09 11:00:14;;;;;;;5.72;2.58;;;17.90;99.90;;;;;;5034227;28;20211;-81
2023/08/09 11:03:00;;;;;;;3.92;1.90;;;17.90;99.90;;;;;;5032695;28;20040;-81
2023/08/09 11:05:29;;;;;;;4.18;1.95;;;18.00;99.90;;;;;;5034747;28;20082;-80
2023/08/09 11:07:57;;;;;;;4.43;2.08;;;18.00;99.90;;;;;;5034123;28;20049;-80
2023/08/09 11:10:33;;;;;;;5.28;2.13;;;18.10;99.90;;;;;;5034202;28;20029;-80
2023/08/09 11:13:18;;;;;;;2.67;1.90;;;18.30;99.90;;;;;;5033739;28;20025;-80
2023/08/09 11:15:50;;;;;;;4.28;2.17;;;18.60;99.90;;;;;;5031788;28;20131;-80
2023/08/09 11:18:16;;;;;;;4.20;1.95;;;18.90;99.90;;;;;;5032566;28;20508;-80
2023/08/09 11:20:42;;;;;;;5.03;1.83;;;19.00;99.90;;;;;;5033140;28;20040;-80
2023/08/09 11:23:08;;;;;;;2.33;1.83;;;19.00;99.90;;;;;;5033420;28;20052;-80
2023/08/09 11:25:34;;;;;;;3.38;2.10;;;19.00;99.90;;;;;;5031619;28;20033;-80
2023/08/09 11:28:03;;;;;;;4.78;2.20;;;19.10;99.90;;;;;;5029484;28;20496;-79
2023/08/09 11:30:31;;;;;;;4.70;2.03;;;19.10;99.90;;;;;;5031277;28;20132;-80
2023/08/09 11:33:00;;;;;;;3.28;1.92;;;19.20;99.90;;;;;;5031625;28;20053;-80
2023/08/09 11:35:39;;;;;;;5.93;2.15;;;19.30;99.90;;;;;;5032129;28;20033;-79
2023/08/09 11:38:09;;;;;;;7.40;2.05;;;19.60;99.90;;;;;;5033492;28;20047;-79
2023/08/09 11:40:46;;;;;;;3.13;2.00;;;19.90;99.90;;;;;;5033816;28;20037;-79
2023/08/09 11:43:16;;;;;;;4.15;1.80;;;20.20;99.90;;;;;;5033481;28;20033;-80
2023/08/09 11:45:49;;;;;;;4.60;1.98;;;20.60;99.90;;;;;;5033878;28;20731;-79
2023/08/09 11:48:24;;;;;;;4.07;1.83;;;21.00;99.90;;;;;;5033436;28;20075;-80
2023/08/09 11:51:03;;;;;;;4.30;1.95;;;21.40;99.90;;;;;;5031616;28;20561;-80
2023/08/09 11:53:29;;;;;;;3.10;1.73;;;21.80;99.90;;;;;;5033516;28;20025;-80
2023/08/09 11:56:02;;;;;;;5.28;2.08;;;22.20;99.90;;;;;;5032432;28;20025;-79
2023/08/09 11:58:28;;;;;;;5.07;2.10;;;22.40;99.90;;;;;;5031862;28;20029;-79
2023/08/09 12:00:53;;;;;;;3.55;1.90;;;22.40;99.90;;;;;;5033436;28;20028;-80
2023/08/09 12:03:20;;;;;;;7.18;1.90;;;22.30;99.90;;;;;;5032212;28;20033;-79
2023/08/09 12:05:46;;;;;;;6.20;2.20;;;22.50;99.90;;;;;;5032754;28;20029;-80
2023/08/09 12:08:12;;;;;;;4.28;1.90;;;22.20;99.90;;;;;;5031008;28;20059;-80
2023/08/09 12:10:41;;;;;;;3.65;1.80;;;22.30;99.90;;;;;;5030679;28;20373;-79
2023/08/09 12:13:06;;;;;;;5.28;2.08;;;22.20;99.90;;;;;;5030855;28;20378;-78
2023/08/09 12:15:34;;;;;;;3.72;1.95;;;22.10;99.90;;;;;;5029756;28;20040;-78
2023/08/09 12:17:59;;;;;;;3.67;1.90;;;22.00;99.90;;;;;;5029487;28;20064;-78
2023/08/09 12:20:25;;;;;;;3.10;1.80;;;21.90;99.90;;;;;;5030967;28;20569;-78
2023/08/09 12:22:50;;;;;;;3.63;1.75;;;21.70;99.90;;;;;;5030863;28;20135;-79
2023/08/09 12:25:16;;;;;;;3.80;2.10;;;21.80;99.90;;;;;;5034431;28;20040;-78
2023/08/09 12:27:42;;;;;;;5.47;1.83;;;21.90;99.90;;;;;;5035078;28;20037;-78
2023/08/09 12:30:10;;;;;;;4.90;2.45;;;22.20;99.90;;;;;;5032224;28;20029;-73
2023/08/09 12:32:37;;;;;;;4.88;2.30;;;22.60;99.90;;;;;;5032162;28;20028;-74
2023/08/09 12:35:04;;;;;;;3.55;1.80;;;23.00;99.90;;;;;;5032318;28;20415;-73
2023/08/09 12:37:30;;;;;;;4.43;1.90;;;22.90;99.90;;;;;;5031105;28;20033;-75
2023/08/09 12:39:56;;;;;;;4.40;2.08;;;23.00;99.90;;;;;;5032063;28;20481;-74
2023/08/09 12:42:22;;;;;;;9.50;1.80;;;23.00;99.90;;;;;;5030338;28;20082;-74
2023/08/09 12:44:47;;;;;;;3.88;2.10;;;23.00;99.90;;;;;;5030579;28;20041;-74
2023/08/09 12:47:13;;;;;;;7.18;1.92;;;22.90;99.90;;;;;;5030680;28;20041;-74
2023/08/09 12:49:39;;;;;;;4.75;2.13;;;22.80;99.90;;;;;;5030829;28;20035;-72